EHEH

Eindhoven Airport

Eindhoven, The Netherlands
METAR EHEH 240355Z AUTO 25006KT 9999 NCD 06/05 Q1030 BLU
Observed Flight Rules
Sep-24 @ 03:55 UTC (22 minutes ago) Visual Flight Rules
Wind Visibility Clouds
250° at 6 knots 10,000+ meters
  • Clear skies
Temperatures Readings
Current 6°C / 43°F
Dewpoint 5°C / 41°F
Humidity 93%
Altimeter 30.41" Hg
Pressure 1030 hPa
Elevation 22
METAR EHEH 240355Z AUTO 25006KT 9999 NCD 06/05 Q1030 BLU
Observed Flight Rules
Sep-24 @ 03:55 UTC
(22 minutes ago)
VFR
Wind Visibility
250° at 6 knots 10,000+ meters
Clouds
  • Clear skies
Temperature Dewpoint
6°C / 43°F 5°C / 41°F
Humidity Altimeter Pressure
93% 30.41" Hg 1030 hPa